createdAt,value
2018-11-05T00:00:47.168Z,11.97
2018-11-05T00:02:55.068Z,13.97
2018-11-05T00:05:39.222Z,13.80
2018-11-05T00:07:43.628Z,10.63
2018-11-05T00:09:51.318Z,12.73
2018-11-05T00:11:59.128Z,12.50
2018-11-05T00:14:07.473Z,12.23
2018-11-05T00:16:15.406Z,15.03
2018-11-05T00:18:23.147Z,12.97
2018-11-05T00:20:31.134Z,12.13
2018-11-05T00:22:40.219Z,12.63
2018-11-05T00:24:48.116Z,11.73
2018-11-05T00:26:55.837Z,15.60
2018-11-05T00:29:03.529Z,13.70
2018-11-05T00:31:11.283Z,17.17
2018-11-05T00:33:18.973Z,14.70
2018-11-05T00:35:26.887Z,16.83
2018-11-05T00:37:34.652Z,14.93
2018-11-05T00:39:42.364Z,14.80
2018-11-05T00:41:50.223Z,21.13
2018-11-05T00:43:57.955Z,16.33
2018-11-05T00:46:05.788Z,19.50
2018-11-05T00:48:13.551Z,17.70
2018-11-05T00:50:21.269Z,17.20
2018-11-05T00:52:29.343Z,16.90
2018-11-05T00:54:37.718Z,16.73
2018-11-05T00:56:46.417Z,16.47
2018-11-05T00:58:54.353Z,15.43
2018-11-05T01:01:02.194Z,17.10
2018-11-05T01:03:12.464Z,17.40
2018-11-05T01:05:20.165Z,17.70
2018-11-05T01:07:28.209Z,15.73
2018-11-05T01:09:36.037Z,16.23
2018-11-05T01:11:44.361Z,17.53
2018-11-05T01:13:56.325Z,18.20
2018-11-05T01:16:11.547Z,14.40
2018-11-05T01:18:19.247Z,17.17
2018-11-05T01:20:27.047Z,19.70
2018-11-05T01:22:35.138Z,14.13
2018-11-05T01:24:42.920Z,16.37
2018-11-05T01:26:50.631Z,13.93
2018-11-05T01:28:58.486Z,16.47
2018-11-05T01:31:06.686Z,17.73
2018-11-05T01:33:14.381Z,13.87
2018-11-05T01:35:22.618Z,14.60
2018-11-05T01:37:30.547Z,16.00
2018-11-05T01:39:38.326Z,14.40
2018-11-05T01:41:46.092Z,16.00
2018-11-05T01:43:53.907Z,15.60
2018-11-05T01:46:01.735Z,16.70
2018-11-05T01:48:10.807Z,19.30
2018-11-05T01:50:18.733Z,15.77
2018-11-05T01:52:26.900Z,15.30
2018-11-05T01:54:34.656Z,18.67
2018-11-05T01:56:42.521Z,12.47
2018-11-05T01:58:51.077Z,15.20
2018-11-05T02:00:59.292Z,14.97
2018-11-05T02:03:07.502Z,17.50
2018-11-05T02:05:15.142Z,15.07
2018-11-05T02:07:23.033Z,13.23
2018-11-05T02:09:30.762Z,15.03
2018-11-05T02:11:39.115Z,16.80
2018-11-05T02:13:47.004Z,15.77
2018-11-05T02:15:54.991Z,16.00
2018-11-05T02:18:02.745Z,21.43
2018-11-05T02:20:10.625Z,22.23
2018-11-05T02:22:18.382Z,17.47
2018-11-05T02:24:26.197Z,17.57
2018-11-05T02:26:34.095Z,14.63
2018-11-05T02:28:41.839Z,19.33
2018-11-05T02:30:49.547Z,16.40
2018-11-05T02:32:57.380Z,17.20
2018-11-05T02:35:05.184Z,14.20
2018-11-05T02:37:13.445Z,15.60
2018-11-05T02:39:21.288Z,15.30
2018-11-05T02:41:29.145Z,20.17
2018-11-05T02:43:36.964Z,23.23
2018-11-05T02:45:44.737Z,20.20
2018-11-05T02:47:52.450Z,15.63
2018-11-05T02:50:00.429Z,15.27
2018-11-05T02:52:08.509Z,19.37
2018-11-05T02:54:16.372Z,14.37
2018-11-05T02:56:24.177Z,14.53
2018-11-05T02:58:32.354Z,17.90
2018-11-05T03:00:41.053Z,22.00
2018-11-05T03:02:48.953Z,13.93
2018-11-05T03:04:56.666Z,14.33
2018-11-05T03:07:04.533Z,12.40
2018-11-05T03:09:13.235Z,13.27
2018-11-05T03:11:20.952Z,16.60
2018-11-05T03:13:28.654Z,16.90
2018-11-05T03:15:36.595Z,14.97
2018-11-05T03:17:44.295Z,16.37
2018-11-05T03:19:51.980Z,18.40
2018-11-05T03:21:59.736Z,19.70
2018-11-05T03:24:07.531Z,18.87
2018-11-05T03:26:15.352Z,16.90
2018-11-05T03:28:23.465Z,14.20
2018-11-05T03:30:31.501Z,13.40
2018-11-05T03:32:39.398Z,14.80
2018-11-05T03:34:47.222Z,17.57
2018-11-05T03:36:57.080Z,19.30
2018-11-05T03:39:05.401Z,19.47
2018-11-05T03:41:13.135Z,12.73
2018-11-05T03:43:21.343Z,15.97
2018-11-05T03:45:29.054Z,13.90
2018-11-05T03:47:36.788Z,15.30
2018-11-05T03:49:44.758Z,16.80
2018-11-05T03:51:52.378Z,23.37
2018-11-05T03:54:00.131Z,17.80
2018-11-05T03:56:08.874Z,17.00
2018-11-05T03:58:16.633Z,16.17
2018-11-05T04:00:24.425Z,19.50
2018-11-05T04:02:32.883Z,15.40
2018-11-05T04:04:40.786Z,16.50
2018-11-05T04:06:48.604Z,14.53
2018-11-05T04:08:56.401Z,15.37
2018-11-05T04:11:04.152Z,17.70
2018-11-05T04:13:11.892Z,14.43
2018-11-05T04:15:19.619Z,15.90
2018-11-05T04:17:27.360Z,14.03
2018-11-05T04:19:35.046Z,12.27
2018-11-05T04:21:46.386Z,14.10
2018-11-05T04:23:54.649Z,12.77
2018-11-05T04:26:02.380Z,11.97
2018-11-05T04:28:10.125Z,12.10
2018-11-05T04:30:17.976Z,11.47
2018-11-05T04:32:26.754Z,13.57
2018-11-05T04:34:34.445Z,17.53
2018-11-05T04:36:42.272Z,16.03
2018-11-05T04:38:50.128Z,11.27
2018-11-05T04:40:57.791Z,13.30
2018-11-05T04:43:05.536Z,13.77
2018-11-05T04:45:14.234Z,14.77
2018-11-05T04:47:22.032Z,12.87
2018-11-05T04:49:29.766Z,15.77
2018-11-05T04:51:37.511Z,10.70
2018-11-05T04:53:45.243Z,15.40
2018-11-05T04:55:53.050Z,11.20
2018-11-05T04:58:00.745Z,12.97
2018-11-05T05:00:16.624Z,14.60
2018-11-05T05:02:24.372Z,14.87
2018-11-05T05:04:32.769Z,13.77
2018-11-05T05:06:40.715Z,13.10
2018-11-05T05:08:48.585Z,12.43
2018-11-05T05:10:56.536Z,12.27
2018-11-05T05:13:04.235Z,13.30
2018-11-05T05:15:12.438Z,14.43
2018-11-05T05:17:20.427Z,13.27
2018-11-05T05:19:28.177Z,12.37
2018-11-05T05:21:36.015Z,14.40
2018-11-05T05:23:43.758Z,13.80
2018-11-05T05:25:51.569Z,16.60
2018-11-05T05:27:59.275Z,17.50
2018-11-05T05:30:19.287Z,13.67
2018-11-05T05:32:27.473Z,16.60
2018-11-05T05:34:35.198Z,16.73
2018-11-05T05:36:42.931Z,16.07
2018-11-05T05:38:50.849Z,13.30
2018-11-05T05:40:58.672Z,12.17
2018-11-05T05:43:06.348Z,16.13
2018-11-05T05:45:14.311Z,14.07
2018-11-05T05:47:22.170Z,15.40
2018-11-05T05:49:30.127Z,18.83
2018-11-05T05:51:37.895Z,15.07
2018-11-05T05:53:46.185Z,17.10
2018-11-05T05:55:53.912Z,15.67
2018-11-05T05:58:01.663Z,14.93
2018-11-05T06:00:14.310Z,14.00
2018-11-05T06:02:22.052Z,16.80
2018-11-05T06:04:29.814Z,17.53
2018-11-05T06:06:38.517Z,19.37
2018-11-05T06:08:46.324Z,19.00
2018-11-05T06:10:54.217Z,19.90
2018-11-05T06:13:01.930Z,15.33
2018-11-05T06:15:12.803Z,16.47
2018-11-05T06:17:20.519Z,17.10
2018-11-05T06:19:28.312Z,16.00
2018-11-05T06:21:37.109Z,17.20
2018-11-05T06:23:44.806Z,15.43
2018-11-05T06:25:52.521Z,15.37
2018-11-05T06:28:00.377Z,15.90
2018-11-05T06:30:12.725Z,12.43
2018-11-05T06:32:20.482Z,17.40
2018-11-05T06:34:28.228Z,15.30
2018-11-05T06:36:35.942Z,20.33
2018-11-05T06:38:43.685Z,15.97
2018-11-05T06:40:51.546Z,20.87
2018-11-05T06:42:59.298Z,17.27
2018-11-05T06:47:52.940Z,17.93
2018-11-05T06:50:01.421Z,17.20
2018-11-05T06:52:09.123Z,15.30
2018-11-05T06:54:16.961Z,15.70
2018-11-05T06:58:34.602Z,17.20
2018-11-05T07:00:42.337Z,14.93
2018-11-05T07:02:50.125Z,17.27
2018-11-05T07:05:00.166Z,18.70
2018-11-05T07:07:05.061Z,14.77
2018-11-05T07:09:13.839Z,15.30
2018-11-05T07:11:21.668Z,18.70
2018-11-05T07:13:29.387Z,16.57
2018-11-05T07:15:37.298Z,18.90
2018-11-05T07:17:46.200Z,16.47
2018-11-05T07:19:54.373Z,19.10
2018-11-05T07:22:02.143Z,21.50
2018-11-05T07:24:11.007Z,18.97
2018-11-05T07:26:18.822Z,19.57
2018-11-05T07:28:26.530Z,19.60
2018-11-05T07:30:34.505Z,21.50
2018-11-05T07:32:42.806Z,17.77
2018-11-05T07:34:50.594Z,18.63
2018-11-05T07:36:58.327Z,18.97
2018-11-05T07:39:12.228Z,20.03
2018-11-05T07:41:20.829Z,20.57
2018-11-05T07:43:28.512Z,16.37
2018-11-05T07:45:36.209Z,22.13
2018-11-05T07:47:44.907Z,23.23
2018-11-05T07:49:52.714Z,19.87
2018-11-05T07:52:00.447Z,21.23
2018-11-05T07:54:08.304Z,18.40
2018-11-05T07:56:16.245Z,19.87
2018-11-05T07:58:23.901Z,22.03
2018-11-05T08:00:49.894Z,24.50
2018-11-05T08:02:59.192Z,19.47
2018-11-05T08:05:07.245Z,23.20
2018-11-05T08:07:19.353Z,24.30
2018-11-05T08:09:27.065Z,21.60
2018-11-05T08:11:34.841Z,19.40
2018-11-05T08:13:42.670Z,21.90
2018-11-05T08:15:50.386Z,25.27
2018-11-05T08:17:58.109Z,21.93
2018-11-05T08:20:07.179Z,26.60
2018-11-05T08:22:15.122Z,23.27
2018-11-05T08:24:23.120Z,26.93
2018-11-05T08:26:30.872Z,22.87
2018-11-05T08:28:38.664Z,25.13
2018-11-05T08:30:46.718Z,21.93
2018-11-05T08:35:41.225Z,24.17
2018-11-05T08:37:49.405Z,22.90
2018-11-05T08:39:57.249Z,22.63
2018-11-05T08:42:06.227Z,28.07
2018-11-05T08:44:14.021Z,28.40
2018-11-05T08:46:22.780Z,27.00
2018-11-05T08:48:30.651Z,30.50
2018-11-05T08:50:38.551Z,28.07
2018-11-05T08:52:46.185Z,27.23
2018-11-05T08:54:56.387Z,33.83
2018-11-05T08:57:04.469Z,26.33
2018-11-05T08:59:13.735Z,26.53
2018-11-05T09:01:24.268Z,30.80
2018-11-05T09:03:32.124Z,26.30
2018-11-05T09:05:39.954Z,23.97
2018-11-05T09:07:49.730Z,28.40
2018-11-05T09:09:58.603Z,23.57
2018-11-05T09:12:06.636Z,24.73
2018-11-05T09:14:14.381Z,26.30
2018-11-05T09:16:22.414Z,24.60
2018-11-05T09:18:30.174Z,25.60
2018-11-05T09:20:38.253Z,24.67
2018-11-05T09:22:46.507Z,32.10
2018-11-05T09:24:54.337Z,26.33
2018-11-05T09:27:02.029Z,24.93
2018-11-05T09:29:09.750Z,28.10
2018-11-05T09:31:17.508Z,23.37
2018-11-05T09:33:25.309Z,25.60
2018-11-05T09:35:34.181Z,24.83
2018-11-05T09:37:47.605Z,27.53
2018-11-05T09:39:53.517Z,22.50
2018-11-05T09:42:01.331Z,29.10
2018-11-05T09:44:09.532Z,22.17
2018-11-05T09:46:17.339Z,25.37
2018-11-05T09:48:49.212Z,22.17
2018-11-05T09:53:30.208Z,24.87
2018-11-05T09:55:51.281Z,26.07
2018-11-05T09:58:00.116Z,27.47
2018-11-05T10:00:32.029Z,26.43
2018-11-05T10:02:58.916Z,28.23
2018-11-05T10:05:12.026Z,21.70
2018-11-05T10:07:26.127Z,21.03
2018-11-05T10:09:37.677Z,26.80
2018-11-05T10:11:55.994Z,25.20
2018-11-05T10:14:17.167Z,18.83
2018-11-05T10:16:23.280Z,21.90
2018-11-05T10:18:33.712Z,20.90
2018-11-05T10:20:42.561Z,23.90
2018-11-05T10:23:00.513Z,21.93
2018-11-05T10:25:10.555Z,17.70
2018-11-05T10:27:22.182Z,21.00
2018-11-05T10:29:34.258Z,25.23
2018-11-05T10:31:46.998Z,17.40
2018-11-05T10:34:10.995Z,20.10
2018-11-05T10:36:42.403Z,18.17
2018-11-05T10:38:59.054Z,21.53
2018-11-05T10:41:11.927Z,26.10
2018-11-05T10:43:22.851Z,19.37
2018-11-05T10:45:46.713Z,21.40
2018-11-05T10:48:03.101Z,18.67
2018-11-05T10:50:29.618Z,23.73
2018-11-05T10:52:45.027Z,20.70
2018-11-05T10:55:11.963Z,19.30
2018-11-05T10:57:56.251Z,17.00
2018-11-05T11:00:40.012Z,21.80
2018-11-05T11:03:24.012Z,16.87
2018-11-05T11:05:34.886Z,19.17
2018-11-05T11:07:53.219Z,19.67
2018-11-05T11:10:48.112Z,17.50
2018-11-05T11:12:39.437Z,21.20
2018-11-05T11:14:54.623Z,23.13
2018-11-05T11:17:07.415Z,14.80
2018-11-05T11:19:16.999Z,17.87
2018-11-05T11:21:26.557Z,18.17
2018-11-05T11:23:42.177Z,21.00
2018-11-05T11:25:50.614Z,18.17
2018-11-05T11:27:59.368Z,19.93
2018-11-05T11:30:07.757Z,17.73
2018-11-05T11:32:15.493Z,20.00
2018-11-05T11:34:23.309Z,18.00
2018-11-05T11:36:32.150Z,18.17
2018-11-05T11:38:40.002Z,21.80
2018-11-05T11:42:55.455Z,18.63
2018-11-05T11:45:03.325Z,17.23
2018-11-05T11:47:10.932Z,22.33
2018-11-05T11:49:19.828Z,17.80
2018-11-05T11:51:27.605Z,18.33
2018-11-05T11:53:36.177Z,21.43
2018-11-05T11:55:43.914Z,15.63
2018-11-05T11:57:51.776Z,16.30
2018-11-05T11:59:59.564Z,18.40
2018-11-05T12:04:10.145Z,17.60
2018-11-05T12:06:17.901Z,14.67
2018-11-05T12:08:28.123Z,19.00
2018-11-05T12:10:36.499Z,12.63
2018-11-05T12:12:44.565Z,17.67
2018-11-05T12:14:52.408Z,18.20
2018-11-05T12:17:00.090Z,15.83
2018-11-05T12:19:08.562Z,13.73
2018-11-05T12:21:16.297Z,14.30
2018-11-05T12:23:24.047Z,14.83
2018-11-05T12:25:31.801Z,16.47
2018-11-05T12:27:39.634Z,15.17
2018-11-05T12:29:47.400Z,15.30
2018-11-05T12:31:55.118Z,13.90
2018-11-05T12:34:02.829Z,18.57
2018-11-05T12:36:10.818Z,17.20
2018-11-05T12:38:18.570Z,17.20
2018-11-05T12:40:26.793Z,17.63
2018-11-05T12:42:34.520Z,14.23
2018-11-05T12:44:42.488Z,17.10
2018-11-05T12:46:50.208Z,15.50
2018-11-05T12:48:57.938Z,14.20
2018-11-05T12:51:06.560Z,20.60
2018-11-05T12:53:38.083Z,15.80
2018-11-05T12:55:52.952Z,12.23
2018-11-05T12:58:05.583Z,15.80
2018-11-05T13:00:25.637Z,18.27
2018-11-05T13:02:37.993Z,12.17
2018-11-05T13:04:55.625Z,16.90
2018-11-05T13:07:10.916Z,16.50
2018-11-05T13:09:20.495Z,14.33
2018-11-05T13:11:30.658Z,12.60
2018-11-05T13:14:03.859Z,14.70
2018-11-05T13:16:20.495Z,14.30
2018-11-05T13:18:32.700Z,14.23
2018-11-05T13:20:45.949Z,14.93
2018-11-05T13:23:06.002Z,12.70
2018-11-05T13:25:13.617Z,19.53
2018-11-05T13:27:24.368Z,13.33
2018-11-05T13:29:43.596Z,14.60
2018-11-05T13:31:54.683Z,13.27
2018-11-05T13:34:02.374Z,15.00
2018-11-05T13:36:11.214Z,13.03
2018-11-05T13:38:19.422Z,18.70
2018-11-05T13:40:26.874Z,22.90
2018-11-05T13:42:34.594Z,15.80
2018-11-05T13:44:42.428Z,14.97
2018-11-05T13:46:50.637Z,14.93
2018-11-05T13:49:00.205Z,15.67
2018-11-05T13:51:07.627Z,13.47
2018-11-05T13:53:15.730Z,13.07
2018-11-05T13:55:24.106Z,14.90
2018-11-05T13:57:32.188Z,15.27
2018-11-05T13:59:40.224Z,15.10
2018-11-05T14:01:50.307Z,14.47
2018-11-05T14:03:58.080Z,14.43
2018-11-05T14:06:05.926Z,13.63
2018-11-05T14:08:14.114Z,12.50
2018-11-05T14:10:23.450Z,14.60
2018-11-05T14:12:31.625Z,19.00
2018-11-05T14:14:39.383Z,23.63
2018-11-05T14:16:47.387Z,22.67
2018-11-05T14:18:55.116Z,23.70
2018-11-05T14:21:03.283Z,26.37
2018-11-05T14:23:11.115Z,25.93
2018-11-05T14:27:31.455Z,29.60
2018-11-05T14:29:39.578Z,30.67
2018-11-05T14:31:46.904Z,30.30
2018-11-05T14:33:54.695Z,31.33
2018-11-05T14:36:02.480Z,31.20
2018-11-05T14:38:10.233Z,35.60
2018-11-05T14:40:18.951Z,34.80
2018-11-05T14:42:26.741Z,34.73
2018-11-05T14:44:34.538Z,41.33
2018-11-05T14:46:42.580Z,42.67
2018-11-05T14:48:50.344Z,35.10
2018-11-05T14:50:58.410Z,33.57
2018-11-05T14:53:06.203Z,34.90
2018-11-05T14:55:16.287Z,40.70
2018-11-05T14:57:24.375Z,38.97
2018-11-05T14:59:33.225Z,38.83
2018-11-05T15:01:41.275Z,39.70
2018-11-05T15:03:49.041Z,36.93
2018-11-05T15:05:57.168Z,37.67
2018-11-05T15:08:04.998Z,44.07
2018-11-05T15:10:15.436Z,40.60
2018-11-05T15:12:23.268Z,49.17
2018-11-05T15:14:30.691Z,41.27
2018-11-05T15:16:38.434Z,41.70
2018-11-05T15:18:46.446Z,46.07
2018-11-05T15:20:54.141Z,43.10
2018-11-05T15:23:01.839Z,40.27
2018-11-05T15:25:10.245Z,44.60
2018-11-05T15:27:18.002Z,52.27
2018-11-05T15:29:26.103Z,45.90
2018-11-05T15:31:33.902Z,43.50
2018-11-05T15:33:41.791Z,52.07
2018-11-05T15:35:49.524Z,50.60
2018-11-05T15:37:58.452Z,51.97
2018-11-05T15:40:06.529Z,53.23
2018-11-05T15:42:15.043Z,58.53
2018-11-05T15:44:23.119Z,52.87
2018-11-05T15:46:31.159Z,53.40
2018-11-05T15:48:41.100Z,55.93
2018-11-05T15:50:48.933Z,54.67
2018-11-05T15:52:57.043Z,52.87
2018-11-05T15:55:07.338Z,49.17
2018-11-05T15:57:17.499Z,57.23
2018-11-05T15:59:25.340Z,54.10
2018-11-05T16:01:33.232Z,63.07
2018-11-05T16:03:41.104Z,52.20
2018-11-05T16:05:48.911Z,49.43
2018-11-05T16:07:57.957Z,41.53
2018-11-05T16:10:07.899Z,43.97
2018-11-05T16:12:15.707Z,40.83
2018-11-05T16:14:23.521Z,38.27
2018-11-05T16:16:30.087Z,35.87
2018-11-05T16:18:35.073Z,37.60
2018-11-05T16:20:43.102Z,36.70
2018-11-05T16:22:51.675Z,35.63
2018-11-05T16:25:00.887Z,49.17
2018-11-05T16:27:09.181Z,36.53
2018-11-05T16:29:16.974Z,38.67
2018-11-05T16:31:24.908Z,38.70
2018-11-05T16:33:32.791Z,33.70
2018-11-05T16:35:40.981Z,32.83
2018-11-05T16:37:49.006Z,42.00
2018-11-05T16:39:57.089Z,36.80
2018-11-05T16:42:04.770Z,37.33
2018-11-05T16:44:12.194Z,32.17
2018-11-05T16:46:17.110Z,37.13
2018-11-05T16:48:25.165Z,39.47
2018-11-05T16:50:32.918Z,38.07
2018-11-05T16:52:42.015Z,40.73
2018-11-05T16:54:49.965Z,36.80
2018-11-05T16:56:57.747Z,38.87
2018-11-05T16:59:05.955Z,34.80
2018-11-05T17:01:13.932Z,35.87
2018-11-05T17:03:21.524Z,37.23
2018-11-05T17:05:32.172Z,39.10
2018-11-05T17:07:40.090Z,37.87
2018-11-05T17:09:48.269Z,32.20
2018-11-05T17:11:56.372Z,102.50
2018-11-05T17:14:04.243Z,37.20
2018-11-05T17:16:13.106Z,35.27
2018-11-05T17:18:20.891Z,39.47
2018-11-05T17:20:29.296Z,35.90
2018-11-05T17:22:37.201Z,38.50
2018-11-05T17:24:47.614Z,34.60
2018-11-05T17:26:55.774Z,42.00
2018-11-05T17:29:03.594Z,35.47
2018-11-05T17:31:11.398Z,38.13
2018-11-05T17:33:21.712Z,43.00
2018-11-05T17:35:29.515Z,34.67
2018-11-05T17:37:37.245Z,36.07
2018-11-05T17:39:45.044Z,34.97
2018-11-05T17:41:52.892Z,28.40
2018-11-05T17:44:10.695Z,34.90
2018-11-05T17:46:18.711Z,32.37
2018-11-05T17:48:26.888Z,31.77
2018-11-05T17:50:34.700Z,37.17
2018-11-05T17:52:42.923Z,40.67
2018-11-05T17:54:50.738Z,36.67
2018-11-05T17:56:58.696Z,37.27
2018-11-05T17:59:07.916Z,36.73
2018-11-05T18:01:15.955Z,37.43
2018-11-05T18:03:24.704Z,48.60
2018-11-05T18:05:32.576Z,39.10
2018-11-05T18:07:43.076Z,36.80
2018-11-05T18:09:50.984Z,40.33
2018-11-05T18:11:58.899Z,36.10
2018-11-05T18:14:06.776Z,39.83
2018-11-05T18:16:14.839Z,50.70
2018-11-05T18:18:22.686Z,34.27
2018-11-05T18:20:31.219Z,35.27
2018-11-05T18:22:39.110Z,39.43
2018-11-05T18:24:46.917Z,44.27
2018-11-05T18:26:54.676Z,35.83
2018-11-05T18:29:04.313Z,39.03
2018-11-05T18:31:12.418Z,39.77
2018-11-05T18:33:20.614Z,41.37
2018-11-05T18:35:28.429Z,41.30
2018-11-05T18:37:36.353Z,43.50
2018-11-05T18:39:45.235Z,40.67
2018-11-05T18:41:53.906Z,37.57
2018-11-05T18:44:00.009Z,40.33
2018-11-05T18:46:05.196Z,34.00
2018-11-05T18:48:13.158Z,35.80
2018-11-05T18:50:22.083Z,54.07
2018-11-05T18:52:32.545Z,36.20
2018-11-05T18:54:41.431Z,38.97
2018-11-05T18:56:49.231Z,36.87
2018-11-05T18:58:57.687Z,40.33
2018-11-05T19:01:05.553Z,39.57
2018-11-05T19:03:14.445Z,32.40
2018-11-05T19:05:23.600Z,25.47
2018-11-05T19:07:31.635Z,31.97
2018-11-05T19:09:39.564Z,29.00
2018-11-05T19:11:47.281Z,86.37
2018-11-05T19:13:55.093Z,29.33
2018-11-05T19:16:03.079Z,43.10
2018-11-05T19:18:11.515Z,41.23
2018-11-05T19:20:19.595Z,33.50
2018-11-05T19:22:27.445Z,29.10
2018-11-05T19:24:35.821Z,27.87
2018-11-05T19:26:43.562Z,52.33
2018-11-05T19:28:55.271Z,30.43
2018-11-05T19:31:03.095Z,55.73
2018-11-05T19:33:11.523Z,38.73
2018-11-05T19:35:22.602Z,28.77
2018-11-05T19:37:30.670Z,28.33
2018-11-05T19:39:38.592Z,29.33
2018-11-05T19:41:46.884Z,27.50
2018-11-05T19:43:53.507Z,30.70
2018-11-05T19:45:58.490Z,52.13
2018-11-05T19:48:06.560Z,44.57
2018-11-05T19:50:30.069Z,34.83
2018-11-05T19:52:43.934Z,51.40
2018-11-05T19:54:57.767Z,58.10
2018-11-05T19:57:28.595Z,31.90
2018-11-05T19:59:51.404Z,34.83
2018-11-05T20:02:01.877Z,50.00
2018-11-05T20:04:13.346Z,73.20
2018-11-05T20:06:21.242Z,33.40
2018-11-05T20:08:34.069Z,27.47
2018-11-05T20:10:59.648Z,54.63
2018-11-05T20:15:56.976Z,38.13
2018-11-05T20:18:04.779Z,38.30
2018-11-05T20:20:17.984Z,37.07
2018-11-05T20:22:26.116Z,33.70
2018-11-05T20:24:45.520Z,34.33
2018-11-05T20:26:54.897Z,32.30
2018-11-05T20:29:22.953Z,37.20
2018-11-05T20:31:41.081Z,52.43
2018-11-05T20:34:03.901Z,36.30
2018-11-05T20:36:16.999Z,36.77
2018-11-05T20:38:38.417Z,47.13
2018-11-05T20:40:50.214Z,56.10
2018-11-05T20:43:08.863Z,63.20
2018-11-05T20:45:16.074Z,48.43
2018-11-05T20:47:21.821Z,41.23
2018-11-05T20:49:30.614Z,43.43
2018-11-05T20:51:41.864Z,51.70
2018-11-05T20:53:49.800Z,36.23
2018-11-05T20:55:57.650Z,64.80
2018-11-05T20:58:05.429Z,42.97
2018-11-05T21:00:17.084Z,41.03
2018-11-05T21:02:25.022Z,35.10
2018-11-05T21:04:32.823Z,44.87
2018-11-05T21:06:44.163Z,30.20
2018-11-05T21:09:06.899Z,40.50
2018-11-05T21:13:32.499Z,35.70
2018-11-05T21:15:45.221Z,32.47
2018-11-05T21:18:02.088Z,58.03
2018-11-05T21:20:24.844Z,38.23
2018-11-05T21:22:42.191Z,41.53
2018-11-05T21:24:51.725Z,43.60
2018-11-05T21:27:02.114Z,43.30
2018-11-05T21:29:22.952Z,30.27
2018-11-05T21:33:53.367Z,35.80
2018-11-05T21:36:03.288Z,34.07
2018-11-05T21:38:13.007Z,29.53
2018-11-05T21:40:37.939Z,34.23
2018-11-05T21:42:50.891Z,53.93
2018-11-05T21:44:59.470Z,32.43
2018-11-05T21:47:12.730Z,39.33
2018-11-05T21:49:52.094Z,46.70
2018-11-05T21:52:21.236Z,38.50
2018-11-05T21:54:38.011Z,34.80
2018-11-05T21:56:47.428Z,43.17
2018-11-05T21:59:11.946Z,45.53
2018-11-05T22:01:21.301Z,19.70
2018-11-05T22:03:40.670Z,39.47
2018-11-05T22:06:13.681Z,24.20
2018-11-05T22:08:32.771Z,30.73
2018-11-05T22:10:44.738Z,22.00
2018-11-05T22:13:00.178Z,21.10
2018-11-05T22:15:17.263Z,28.00
2018-11-05T22:17:26.768Z,21.50
2018-11-05T22:19:40.352Z,17.50
2018-11-05T22:21:55.085Z,29.33
2018-11-05T22:24:03.076Z,27.50
2018-11-05T22:26:13.871Z,39.60
2018-11-05T22:28:26.229Z,35.90
2018-11-05T22:30:43.151Z,25.63
2018-11-05T22:33:00.026Z,33.63
2018-11-05T22:35:22.756Z,24.57
2018-11-05T22:37:46.455Z,21.70
2018-11-05T22:43:05.111Z,36.13
2018-11-05T22:45:11.182Z,23.20
2018-11-05T22:47:21.372Z,24.93
2018-11-05T22:49:44.977Z,19.93
2018-11-05T22:51:52.685Z,18.83
2018-11-05T22:54:00.768Z,23.90
2018-11-05T22:56:09.861Z,44.30
2018-11-05T22:58:17.833Z,22.60
2018-11-05T23:00:42.524Z,27.37
2018-11-05T23:03:07.180Z,32.70
2018-11-05T23:05:15.517Z,26.43
2018-11-05T23:07:23.264Z,22.20
2018-11-05T23:09:31.455Z,35.40
2018-11-05T23:11:39.283Z,31.63
2018-11-05T23:13:47.078Z,33.07
2018-11-05T23:15:54.958Z,27.90
2018-11-05T23:18:02.940Z,29.23
2018-11-05T23:20:11.271Z,35.23
2018-11-05T23:22:18.977Z,59.13
2018-11-05T23:24:26.983Z,39.10
2018-11-05T23:26:35.381Z,28.80
2018-11-05T23:28:43.436Z,30.07
2018-11-05T23:30:51.158Z,22.67
2018-11-05T23:32:58.888Z,28.00
2018-11-05T23:35:07.301Z,41.43
2018-11-05T23:37:17.513Z,25.97
2018-11-05T23:39:25.256Z,34.53
2018-11-05T23:41:33.333Z,51.87
2018-11-05T23:43:41.212Z,39.17
2018-11-05T23:45:48.906Z,49.53
2018-11-05T23:47:57.044Z,34.63
2018-11-05T23:50:05.058Z,27.53
2018-11-05T23:52:12.895Z,26.27
2018-11-05T23:54:20.694Z,24.73
2018-11-05T23:56:28.429Z,33.33
2018-11-05T23:58:36.187Z,30.63
